Time;durP1;ratioP1;P1;durP2;ratioP2;P2;SDS_P1;SDS_P2;PMS_P1;PMS_P2;Temp;Humidity;BMP_temperature;BMP_pressure;BME280_temperature;BME280_humidity;BME280_pressure;Samples;Min_cycle;Max_cycle;Signal;HPM_P1;HPM_P2
2023/01/10 00:02:09;;;;;;;9.27;6.05;;;;;;;9.76;59.71;98394.31;4321286;33;20834;-89
2023/01/10 00:04:34;;;;;;;9.38;5.47;;;;;;;9.83;59.72;98389.62;4321076;33;20084;-90
2023/01/10 00:07:00;;;;;;;8.38;5.62;;;;;;;9.99;59.73;98389.72;4327302;33;20143;-90
2023/01/10 00:09:25;;;;;;;8.77;5.40;;;;;;;9.96;59.73;98388.13;4306511;33;20210;-88
2023/01/10 00:14:35;;;;;;;8.98;5.72;;;;;;;9.88;59.72;98395.44;4322353;33;20484;-89
2023/01/10 00:17:01;;;;;;;11.70;6.90;;;;;;;9.85;59.72;98385.22;4312067;33;20160;-88
2023/01/10 00:19:27;;;;;;;9.70;6.40;;;;;;;9.69;59.71;98385.13;4320065;33;20107;-88
2023/01/10 00:21:52;;;;;;;12.30;5.82;;;;;;;9.64;59.71;98387.13;4324175;33;20141;-88
2023/01/10 00:24:17;;;;;;;8.98;5.60;;;;;;;9.51;59.70;98388.66;4305675;33;20541;-89
2023/01/10 00:26:45;;;;;;;7.55;5.03;;;;;;;9.58;59.71;98384.00;4301043;33;20139;-89
2023/01/10 00:29:11;;;;;;;9.45;5.78;;;;;;;9.65;59.71;98380.16;4308899;33;20107;-89
2023/01/10 00:31:36;;;;;;;8.30;5.10;;;;;;;9.62;59.71;98377.72;4311453;33;20643;-88
2023/01/10 00:34:02;;;;;;;6.93;4.35;;;;;;;9.75;59.71;98371.84;4332663;33;20091;-88
2023/01/10 00:36:27;;;;;;;6.40;4.12;;;;;;;9.75;59.72;98371.00;4311052;33;20091;-88
2023/01/10 00:38:52;;;;;;;8.02;4.28;;;;;;;9.69;59.71;98373.91;4320450;33;20137;-88
2023/01/10 00:44:02;;;;;;;8.10;4.68;;;;;;;9.71;59.71;98366.88;4323014;33;20122;-89
2023/01/10 00:46:28;;;;;;;6.68;4.32;;;;;;;9.74;59.72;98367.56;4310535;33;20132;-89
2023/01/10 00:48:53;;;;;;;6.37;4.25;;;;;;;9.53;59.70;98366.06;4312336;33;20112;-87
2023/01/10 00:51:19;;;;;;;7.25;4.10;;;;;;;9.64;59.72;98376.72;4295759;33;20150;-88
2023/01/10 00:53:44;;;;;;;7.40;3.97;;;;;;;9.51;59.70;98375.69;4319294;33;20095;-87
2023/01/10 00:56:09;;;;;;;5.12;3.65;;;;;;;9.56;59.70;98372.84;4320529;33;20176;-88
2023/01/10 00:58:35;;;;;;;5.95;4.03;;;;;;;9.66;59.72;98371.47;4315110;33;20119;-88
2023/01/10 01:01:00;;;;;;;4.15;3.10;;;;;;;9.58;59.71;98376.19;4317981;33;20116;-89
2023/01/10 01:03:26;;;;;;;8.40;3.78;;;;;;;9.59;59.71;98381.31;4307630;33;20135;-88
2023/01/10 01:05:51;;;;;;;5.22;3.05;;;;;;;9.54;59.70;98373.75;4319506;33;20112;-89
2023/01/10 01:08:17;;;;;;;5.90;2.92;;;;;;;9.49;59.71;98365.38;4319567;33;20190;-88
2023/01/10 01:10:43;;;;;;;4.18;3.12;;;;;;;9.50;59.70;98356.66;4322243;33;20115;-87
2023/01/10 01:13:27;;;;;;;4.40;3.20;;;;;;;9.43;59.70;98375.19;4321983;33;20130;-87
2023/01/10 01:15:53;;;;;;;3.45;2.53;;;;;;;9.43;59.70;98368.25;4330832;33;20107;-88
2023/01/10 01:18:19;;;;;;;4.05;2.33;;;;;;;9.26;59.70;98365.66;4321823;33;20100;-87
2023/01/10 01:20:45;;;;;;;3.05;2.22;;;;;;;9.31;59.69;98368.84;4319375;33;20101;-85
2023/01/10 01:23:11;;;;;;;4.07;2.65;;;;;;;9.30;59.69;98367.19;4302559;33;20095;-88
2023/01/10 01:25:36;;;;;;;3.78;1.87;;;;;;;9.29;59.69;98359.47;4321830;33;20112;-89
2023/01/10 01:28:02;;;;;;;2.50;1.62;;;;;;;9.26;59.68;98367.41;4318819;33;20119;-89
2023/01/10 01:30:27;;;;;;;2.62;2.10;;;;;;;9.21;59.69;98370.19;4322426;33;20155;-89
2023/01/10 01:32:53;;;;;;;3.10;1.90;;;;;;;9.13;59.68;98369.75;4322109;33;20163;-89
2023/01/10 01:35:18;;;;;;;3.28;1.80;;;;;;;9.05;59.68;98364.09;4322069;33;20084;-89
2023/01/10 01:37:44;;;;;;;2.78;1.70;;;;;;;9.03;59.67;98366.75;4322106;33;20142;-88
2023/01/10 01:40:14;;;;;;;1.95;1.40;;;;;;;8.91;59.67;98378.53;4312057;33;20129;-88
2023/01/10 01:42:39;;;;;;;2.47;1.62;;;;;;;8.85;59.67;98378.00;4319837;33;20091;-88
2023/01/10 01:45:08;;;;;;;1.80;1.20;;;;;;;8.94;59.67;98367.19;4321060;33;20458;-88
2023/01/10 01:47:44;;;;;;;1.55;1.30;;;;;;;8.86;59.66;98374.50;4325413;33;20112;-88
2023/01/10 01:50:26;;;;;;;3.42;1.58;;;;;;;8.77;59.66;98378.37;4320019;33;20463;-89
2023/01/10 01:52:52;;;;;;;1.80;1.40;;;;;;;8.81;59.66;98376.47;4321577;33;20227;-88
2023/01/10 01:55:18;;;;;;;2.58;1.50;;;;;;;8.82;59.67;98365.19;4310132;33;20155;-87
2023/01/10 01:57:44;;;;;;;1.77;1.30;;;;;;;8.73;59.66;98378.56;4311523;33;20115;-88
2023/01/10 02:00:10;;;;;;;1.27;1.10;;;;;;;8.66;59.66;98377.16;4311874;33;20146;-89
2023/01/10 02:02:37;;;;;;;1.70;1.25;;;;;;;8.66;59.66;98382.34;4319996;33;20430;-88
2023/01/10 02:05:04;;;;;;;4.07;1.30;;;;;;;8.73;59.65;98389.78;4310399;33;20156;-89
2023/01/10 02:07:32;;;;;;;2.87;0.93;;;;;;;8.79;59.66;98393.87;4319940;33;20164;-88
2023/01/10 02:10:27;;;;;;;2.28;0.73;;;;;;;8.76;59.67;98400.03;4313208;33;20115;-88
2023/01/10 02:12:52;;;;;;;1.52;0.90;;;;;;;8.62;59.66;98405.00;4322607;33;20087;-88
2023/01/10 02:15:18;;;;;;;2.30;0.82;;;;;;;8.53;59.65;98397.66;4309822;33;20114;-88
2023/01/10 02:17:45;;;;;;;1.95;0.70;;;;;;;8.44;59.64;98400.63;4321903;33;20122;-89
2023/01/10 02:20:11;;;;;;;1.27;0.88;;;;;;;8.55;59.65;98406.19;4322235;33;20167;-90
2023/01/10 02:22:59;;;;;;;2.08;0.85;;;;;;;8.55;59.65;98406.19;4310541;33;20117;-88
2023/01/10 02:25:53;;;;;;;2.17;0.90;;;;;;;8.46;59.65;98407.44;4334841;33;20095;-88
2023/01/10 02:28:27;;;;;;;2.08;1.08;;;;;;;8.37;59.64;98404.44;4334696;33;20115;-87
2023/01/10 02:31:10;;;;;;;1.52;0.82;;;;;;;8.40;59.65;98396.50;4334505;33;20095;-89
2023/01/10 02:33:46;;;;;;;2.25;0.57;;;;;;;8.31;59.64;98396.00;4331838;33;20105;-86
2023/01/10 02:36:43;;;;;;;0.60;0.50;;;;;;;8.32;59.64;98402.00;4304057;33;20108;-86
2023/01/10 02:39:15;;;;;;;0.77;0.50;;;;;;;8.28;59.64;98397.84;4325976;33;20112;-88
2023/01/10 02:42:05;;;;;;;1.10;0.70;;;;;;;8.21;59.63;98392.09;4330924;33;20112;-88
2023/01/10 02:44:42;;;;;;;1.20;0.62;;;;;;;8.23;59.63;98392.87;4308122;33;20083;-87
2023/01/10 02:47:07;;;;;;;2.28;0.82;;;;;;;7.97;59.62;98406.13;4322037;33;20681;-88
2023/01/10 02:49:46;;;;;;;0.65;0.30;;;;;;;8.27;59.64;98401.34;4320149;33;20104;-88
2023/01/10 02:52:13;;;;;;;1.23;0.50;;;;;;;8.36;59.64;98389.78;4301292;33;20130;-88
2023/01/10 02:54:39;;;;;;;0.73;0.52;;;;;;;8.44;59.65;98398.88;4308598;33;20091;-87
2023/01/10 02:57:35;;;;;;;1.58;0.50;;;;;;;8.43;59.64;98396.38;4321540;33;20142;-88
2023/01/10 03:00:07;;;;;;;0.65;0.50;;;;;;;8.28;59.63;98403.03;4332502;33;21041;-86
2023/01/10 03:03:00;;;;;;;0.82;0.60;;;;;;;8.20;59.63;98402.53;4315308;33;20139;-88
2023/01/10 03:05:28;;;;;;;0.68;0.50;;;;;;;8.06;59.62;98412.69;4327447;33;20171;-88
2023/01/10 03:08:27;;;;;;;1.23;0.62;;;;;;;8.19;59.63;98411.22;4333961;33;20163;-88
2023/01/10 03:11:00;;;;;;;0.50;0.37;;;;;;;8.14;59.62;98420.97;4335655;33;20091;-88
2023/01/10 03:13:28;;;;;;;1.58;0.60;;;;;;;8.21;59.63;98419.78;4334781;33;20104;-87
2023/01/10 03:15:53;;;;;;;0.37;0.37;;;;;;;8.28;59.63;98419.47;4322533;33;20111;-89
2023/01/10 03:18:22;;;;;;;0.77;0.60;;;;;;;8.05;59.62;98413.59;4322011;33;20146;-89
2023/01/10 03:20:48;;;;;;;0.62;0.55;;;;;;;8.18;59.63;98423.34;4321916;33;20111;-89
2023/01/10 03:23:13;;;;;;;0.45;0.40;;;;;;;8.22;59.63;98422.28;4322406;33;20122;-90
2023/01/10 03:25:39;;;;;;;1.00;0.50;;;;;;;8.06;59.62;98418.72;4321936;33;20088;-88
2023/01/10 03:28:08;;;;;;;0.45;0.45;;;;;;;7.93;59.62;98418.38;4321189;33;20118;-88
2023/01/10 03:30:45;;;;;;;0.80;0.50;;;;;;;7.92;59.62;98423.63;4312268;33;20478;-88
2023/01/10 03:33:11;;;;;;;0.55;0.43;;;;;;;7.95;59.62;98426.06;4322294;33;20068;-88
2023/01/10 03:35:51;;;;;;;0.50;0.43;;;;;;;7.78;59.61;98436.31;4305003;33;20163;-88
2023/01/10 03:38:20;;;;;;;;;;;;;;;7.90;59.61;98435.81;4331316;33;20071;-87
2023/01/10 03:40:48;;;;;;;5.10;0.50;;;;;;;7.76;59.62;98436.38;4327905;33;20047;-87
2023/01/10 03:46:07;;;;;;;0.95;0.60;;;;;;;7.78;59.61;98438.87;4324206;33;20114;-88
2023/01/10 03:48:35;;;;;;;1.90;0.45;;;;;;;7.94;59.62;98432.16;4310154;33;20458;-88
2023/01/10 03:51:01;;;;;;;1.00;0.40;;;;;;;7.97;59.61;98435.47;4309856;33;20130;-88
2023/01/10 03:53:27;;;;;;;0.95;0.50;;;;;;;7.80;59.61;98437.06;4321234;33;20103;-87
2023/01/10 03:55:52;;;;;;;1.02;0.50;;;;;;;7.90;59.61;98451.34;4309978;33;20163;-89
2023/01/10 03:58:20;;;;;;;0.50;0.50;;;;;;;7.94;59.62;98445.13;4318785;33;20100;-88
2023/01/10 04:00:46;;;;;;;0.75;0.50;;;;;;;7.79;59.61;98443.16;4310054;33;20178;-89
2023/01/10 04:03:12;;;;;;;0.50;0.50;;;;;;;7.98;59.62;98454.44;4309422;33;20107;-88
2023/01/10 04:05:37;;;;;;;1.20;0.50;;;;;;;7.98;59.62;98452.69;4321538;33;20117;-88
2023/01/10 04:08:03;;;;;;;2.15;0.80;;;;;;;8.17;59.63;98452.75;4320817;33;20154;-88
2023/01/10 04:10:28;;;;;;;0.70;0.57;;;;;;;8.22;59.64;98458.59;4321626;33;20535;-88
2023/01/10 04:12:54;;;;;;;2.15;1.10;;;;;;;8.26;59.63;98462.72;4321912;33;20166;-89
2023/01/10 04:15:19;;;;;;;1.15;0.82;;;;;;;8.19;59.63;98466.50;4313177;33;20127;-88
2023/01/10 04:17:47;;;;;;;0.50;0.40;;;;;;;8.32;59.64;98461.63;4320627;33;20502;-91
2023/01/10 04:20:13;;;;;;;0.60;0.52;;;;;;;8.48;59.64;98454.03;4325488;33;20130;-90
2023/01/10 04:22:38;;;;;;;0.90;0.50;;;;;;;8.46;59.65;98441.16;4321222;33;20107;-89
2023/01/10 04:25:04;;;;;;;0.40;0.40;;;;;;;8.15;59.63;98433.84;4307399;33;20104;-89
2023/01/10 04:27:29;;;;;;;0.85;0.40;;;;;;;8.22;59.62;98429.22;4306748;33;20099;-87
2023/01/10 04:29:55;;;;;;;1.20;0.98;;;;;;;8.28;59.64;98418.59;4323447;33;20124;-86
2023/01/10 04:32:20;;;;;;;2.15;1.27;;;;;;;8.25;59.63;98429.09;4308790;33;20158;-88
2023/01/10 04:34:46;;;;;;;0.32;0.30;;;;;;;8.27;59.63;98429.88;4321468;33;20112;-87
2023/01/10 04:37:11;;;;;;;0.70;0.30;;;;;;;8.28;59.63;98437.59;4320674;33;20111;-87
2023/01/10 04:39:36;;;;;;;0.88;0.55;;;;;;;8.27;59.63;98438.47;4308899;33;20174;-88
2023/01/10 04:42:02;;;;;;;0.62;0.40;;;;;;;8.11;59.63;98434.88;4318616;33;20174;-88
2023/01/10 04:44:27;;;;;;;1.75;0.45;;;;;;;8.03;59.62;98444.72;4313727;33;20087;-89
2023/01/10 04:46:53;;;;;;;0.40;0.30;;;;;;;8.04;59.62;98451.59;4321719;33;20168;-88
2023/01/10 04:49:18;;;;;;;0.50;0.30;;;;;;;8.13;59.63;98463.34;4321063;33;20487;-88
2023/01/10 04:51:43;;;;;;;0.80;0.40;;;;;;;8.15;59.64;98464.09;4320567;33;20171;-88
2023/01/10 04:54:09;;;;;;;0.55;0.30;;;;;;;8.19;59.63;98471.69;4319921;33;20118;-88
2023/01/10 04:56:34;;;;;;;0.20;0.20;;;;;;;8.05;59.62;98471.44;4311118;33;20146;-89
2023/01/10 04:59:00;;;;;;;0.40;0.20;;;;;;;7.98;59.61;98483.78;4313419;33;20154;-88
2023/01/10 05:01:25;;;;;;;0.68;0.47;;;;;;;7.94;59.62;98496.94;4305922;33;20131;-87
2023/01/10 05:03:52;;;;;;;0.90;0.30;;;;;;;7.96;59.62;98490.78;4307883;33;20107;-86
2023/01/10 05:06:18;;;;;;;3.03;0.30;;;;;;;7.90;59.61;98493.63;4317538;33;20127;-89
2023/01/10 05:08:44;;;;;;;0.62;0.30;;;;;;;7.89;59.61;98496.28;4302375;33;20127;-89
2023/01/10 05:11:09;;;;;;;0.90;0.22;;;;;;;7.68;59.60;98506.63;4320906;33;20126;-88
2023/01/10 05:13:35;;;;;;;0.55;0.20;;;;;;;7.90;59.61;98516.13;4321070;33;20112;-89
2023/01/10 05:16:00;;;;;;;0.20;0.20;;;;;;;7.92;59.62;98514.31;4311169;33;20144;-88
2023/01/10 05:18:26;;;;;;;0.77;0.15;;;;;;;7.93;59.62;98524.59;4320867;33;20166;-89
2023/01/10 05:20:52;;;;;;;0.88;0.20;;;;;;;8.00;59.62;98528.63;4320544;33;20165;-88
2023/01/10 05:23:17;;;;;;;0.13;0.10;;;;;;;7.97;59.61;98533.94;4320557;33;20481;-89
2023/01/10 05:25:43;;;;;;;2.50;0.40;;;;;;;7.87;59.62;98534.38;4320833;33;20100;-89
2023/01/10 05:28:08;;;;;;;0.43;0.30;;;;;;;7.95;59.62;98533.16;4320871;33;20123;-89
2023/01/10 05:30:34;;;;;;;1.12;0.40;;;;;;;7.99;59.63;98545.06;4310996;33;20350;-88
2023/01/10 05:32:59;;;;;;;0.50;0.20;;;;;;;7.92;59.62;98538.47;4312273;33;20099;-89
2023/01/10 05:35:25;;;;;;;0.62;0.30;;;;;;;7.93;59.62;98536.72;4307254;33;20095;-89
2023/01/10 05:37:50;;;;;;;0.70;0.20;;;;;;;7.79;59.61;98526.06;4308631;33;20111;-89
2023/01/10 05:40:16;;;;;;;1.15;0.60;;;;;;;7.80;59.61;98525.16;4320206;33;20513;-89
2023/01/10 05:42:41;;;;;;;0.30;0.20;;;;;;;7.62;59.59;98527.59;4320889;33;20095;-88
2023/01/10 05:45:07;;;;;;;0.80;0.25;;;;;;;7.72;59.61;98530.66;4310977;33;20170;-89
2023/01/10 05:47:33;;;;;;;0.77;0.35;;;;;;;7.77;59.61;98528.72;4332491;33;20167;-91
2023/01/10 05:49:58;;;;;;;0.93;0.47;;;;;;;7.74;59.60;98533.16;4320595;33;20107;-89
2023/01/10 05:52:24;;;;;;;0.62;0.30;;;;;;;7.86;59.61;98540.47;4321801;33;20167;-90
2023/01/10 05:54:49;;;;;;;0.85;0.50;;;;;;;7.83;59.60;98541.44;4323104;33;20096;-89
2023/01/10 05:57:14;;;;;;;0.50;0.25;;;;;;;7.76;59.60;98539.13;4313768;33;20108;-89
2023/01/10 05:59:40;;;;;;;0.88;0.70;;;;;;;7.75;59.60;98543.47;4308980;33;20125;-89
2023/01/10 06:02:05;;;;;;;0.50;0.40;;;;;;;7.82;59.61;98551.88;4302646;33;20494;-90
2023/01/10 06:04:31;;;;;;;2.28;0.30;;;;;;;7.71;59.60;98552.28;4311472;33;20110;-89
2023/01/10 06:06:56;;;;;;;0.45;0.20;;;;;;;7.78;59.61;98571.84;4302519;33;20501;-89
2023/01/10 06:09:22;;;;;;;0.50;0.20;;;;;;;7.46;59.58;98573.09;4335100;33;20144;-90
2023/01/10 06:11:47;;;;;;;1.25;0.40;;;;;;;7.54;59.59;98576.22;4322011;33;20126;-88
2023/01/10 06:14:17;;;;;;;1.42;0.60;;;;;;;7.63;59.60;98575.87;4320223;33;20163;-88
2023/01/10 06:16:43;;;;;;;0.80;0.35;;;;;;;7.67;59.60;98581.78;4303658;33;20153;-88
2023/01/10 06:19:09;;;;;;;1.08;0.65;;;;;;;7.65;59.60;98588.78;4322425;33;20646;-88
2023/01/10 06:21:34;;;;;;;1.12;0.73;;;;;;;7.61;59.59;98593.25;4322705;33;20254;-88
2023/01/10 06:23:59;;;;;;;1.95;0.30;;;;;;;7.47;59.60;98605.84;4322296;33;20175;-88
2023/01/10 06:26:25;;;;;;;0.70;0.45;;;;;;;7.58;59.59;98608.06;4322124;33;20116;-90
2023/01/10 06:28:50;;;;;;;0.62;0.30;;;;;;;7.57;59.60;98606.34;4320479;33;20100;-87
2023/01/10 06:31:16;;;;;;;0.55;0.25;;;;;;;7.68;59.60;98612.81;4309838;33;20091;-88
2023/01/10 06:33:42;;;;;;;1.17;0.50;;;;;;;7.69;59.61;98614.50;4319201;33;20132;-88
2023/01/10 06:36:08;;;;;;;2.67;0.30;;;;;;;7.65;59.60;98628.47;4328114;33;20130;-88
2023/01/10 06:38:33;;;;;;;2.50;0.65;;;;;;;7.67;59.60;98631.00;4321870;33;20100;-89
2023/01/10 06:41:11;;;;;;;1.17;0.40;;;;;;;7.55;59.60;98627.09;4314107;33;20144;-88
2023/01/10 06:43:46;;;;;;;2.17;1.20;;;;;;;7.43;59.59;98632.75;4306303;33;20110;-88
2023/01/10 06:46:12;;;;;;;3.10;1.35;;;;;;;7.49;59.59;98627.34;4306349;33;20103;-89
2023/01/10 06:48:38;;;;;;;0.88;0.70;;;;;;;7.39;59.58;98626.84;4321997;33;20130;-89
2023/01/10 06:51:04;;;;;;;2.15;1.00;;;;;;;7.50;59.59;98629.03;4322121;33;20092;-88
2023/01/10 06:53:29;;;;;;;0.77;0.70;;;;;;;7.44;59.59;98625.84;4322436;33;20096;-88
2023/01/10 06:55:56;;;;;;;3.00;0.82;;;;;;;7.35;59.59;98624.44;4321915;33;20168;-89
2023/01/10 06:58:21;;;;;;;2.03;0.85;;;;;;;7.26;59.58;98635.13;4319163;33;20130;-88
2023/01/10 07:00:47;;;;;;;1.87;0.82;;;;;;;7.37;59.59;98645.94;4320596;33;20167;-89
2023/01/10 07:03:12;;;;;;;1.02;0.70;;;;;;;7.35;59.59;98647.75;4320272;33;20167;-89
2023/01/10 07:05:38;;;;;;;2.03;0.50;;;;;;;7.28;59.58;98664.38;4320836;33;20127;-88
2023/01/10 07:08:03;;;;;;;7.47;3.08;;;;;;;7.12;59.58;98664.09;4319753;33;20091;-88
2023/01/10 07:10:29;;;;;;;5.25;2.15;;;;;;;7.23;59.57;98671.47;4320844;33;20217;-88
2023/01/10 07:12:54;;;;;;;9.60;4.37;;;;;;;7.14;59.57;98688.19;4320933;33;20147;-88
2023/01/10 07:15:20;;;;;;;4.60;2.17;;;;;;;7.26;59.58;98681.72;4320682;33;20123;-88
2023/01/10 07:17:45;;;;;;;1.70;1.00;;;;;;;7.34;59.59;98692.66;4320479;33;20107;-88
2023/01/10 07:20:11;;;;;;;4.35;1.52;;;;;;;7.29;59.58;98694.53;4320516;33;20103;-88
2023/01/10 07:22:36;;;;;;;2.55;1.05;;;;;;;7.31;59.58;98708.25;4320855;33;20092;-88
2023/01/10 07:25:02;;;;;;;1.73;0.60;;;;;;;7.24;59.58;98705.06;4320580;33;20174;-88
2023/01/10 07:27:32;;;;;;;1.65;0.40;;;;;;;7.28;59.58;98717.00;4320267;33;20162;-88
2023/01/10 07:29:57;;;;;;;2.92;0.47;;;;;;;7.19;59.58;98719.06;4318054;33;20107;-88
2023/01/10 07:32:23;;;;;;;1.00;0.50;;;;;;;7.27;59.58;98724.81;4317845;33;20158;-87
2023/01/10 07:34:49;;;;;;;1.35;0.62;;;;;;;7.28;59.58;98723.91;4307935;33;20124;-88
2023/01/10 07:37:14;;;;;;;1.40;0.43;;;;;;;7.20;59.58;98731.94;4298963;33;20187;-88
2023/01/10 07:39:41;;;;;;;2.65;0.55;;;;;;;7.14;59.57;98734.75;4312625;33;20133;-89
2023/01/10 07:42:09;;;;;;;0.50;0.30;;;;;;;7.11;59.58;98734.88;4299093;33;20107;-88
2023/01/10 07:44:34;;;;;;;0.90;0.40;;;;;;;7.19;59.58;98734.59;4308164;33;20183;-88
2023/01/10 07:47:00;;;;;;;0.60;0.30;;;;;;;7.25;59.59;98742.97;4320121;33;20115;-87
2023/01/10 07:49:25;;;;;;;1.37;0.50;;;;;;;7.28;59.58;98755.81;4320206;33;20129;-88
2023/01/10 07:51:51;;;;;;;0.68;0.35;;;;;;;7.34;59.59;98765.13;4320594;33;20123;-88
2023/01/10 07:54:16;;;;;;;0.60;0.30;;;;;;;7.26;59.58;98769.72;4318632;33;20109;-88
2023/01/10 07:56:42;;;;;;;1.48;0.45;;;;;;;7.33;59.59;98772.06;4320007;33;20123;-88
2023/01/10 07:59:07;;;;;;;1.10;0.43;;;;;;;7.31;59.58;98771.25;4320175;33;20131;-88
2023/01/10 08:01:32;;;;;;;0.77;0.30;;;;;;;7.24;59.58;98785.28;4320416;33;20115;-88
2023/01/10 08:03:58;;;;;;;0.95;0.40;;;;;;;7.27;59.58;98792.09;4320166;33;20207;-88
2023/01/10 08:06:23;;;;;;;0.85;0.50;;;;;;;7.34;59.59;98797.03;4320161;33;20157;-88
2023/01/10 08:08:49;;;;;;;2.87;0.95;;;;;;;7.32;59.58;98801.41;4320409;33;20099;-88
2023/01/10 08:11:14;;;;;;;1.65;0.68;;;;;;;7.46;59.59;98805.28;4320037;33;20167;-88
2023/01/10 08:13:40;;;;;;;0.75;0.50;;;;;;;7.30;59.58;98807.53;4320371;33;20146;-88
2023/01/10 08:16:06;;;;;;;9.80;1.73;;;;;;;7.54;59.59;98814.47;4315891;33;20130;-88
2023/01/10 08:18:31;;;;;;;2.35;0.70;;;;;;;7.62;59.59;98811.63;4314378;33;20087;-88
2023/01/10 08:20:57;;;;;;;2.25;0.77;;;;;;;7.56;59.60;98820.44;4310395;33;20107;-87
2023/01/10 08:23:23;;;;;;;3.87;0.37;;;;;;;7.69;59.61;98834.66;4320761;33;20481;-88
2023/01/10 08:25:50;;;;;;;4.78;0.98;;;;;;;7.69;59.61;98842.44;4316090;33;20107;-88
2023/01/10 08:28:15;;;;;;;1.23;0.60;;;;;;;7.69;59.60;98841.59;4302252;33;20095;-88
2023/01/10 08:30:41;;;;;;;1.85;0.70;;;;;;;7.65;59.60;98858.13;4319485;33;20158;-88
2023/01/10 08:33:07;;;;;;;1.42;0.40;;;;;;;7.84;59.62;98866.97;4319791;33;20170;-88
2023/01/10 08:35:39;;;;;;;0.98;0.40;;;;;;;7.82;59.61;98866.19;4317168;33;20141;-88
2023/01/10 08:38:05;;;;;;;1.65;0.30;;;;;;;7.60;59.60;98865.22;4317109;33;20084;-88
2023/01/10 08:40:30;;;;;;;1.60;0.40;;;;;;;7.63;59.61;98876.31;4299027;33;20469;-88
2023/01/10 08:43:00;;;;;;;0.90;0.40;;;;;;;7.60;59.60;98873.00;4320093;33;20158;-87
2023/01/10 08:45:25;;;;;;;1.75;0.77;;;;;;;7.49;59.59;98883.69;4317203;33;20108;-89
2023/01/10 08:47:51;;;;;;;1.23;0.50;;;;;;;7.39;59.58;98883.16;4318440;33;20118;-88
2023/01/10 08:50:16;;;;;;;3.28;0.50;;;;;;;7.57;59.60;98886.91;4319561;33;20437;-87
2023/01/10 08:52:41;;;;;;;1.80;0.75;;;;;;;7.35;59.58;98901.44;4311388;33;20484;-88
2023/01/10 08:55:07;;;;;;;1.40;0.30;;;;;;;7.30;59.58;98898.97;4313254;33;20647;-87
2023/01/10 08:57:33;;;;;;;1.05;0.50;;;;;;;7.22;59.58;98894.94;4314826;33;20516;-88
2023/01/10 08:59:58;;;;;;;0.52;0.30;;;;;;;7.22;59.58;98905.31;4302987;33;20151;-88
2023/01/10 09:02:23;;;;;;;1.52;0.40;;;;;;;7.27;59.58;98913.75;4325420;33;20104;-87
2023/01/10 09:04:49;;;;;;;0.40;0.15;;;;;;;7.18;59.58;98924.41;4320091;33;20115;-87
2023/01/10 09:07:14;;;;;;;1.75;0.62;;;;;;;7.17;59.57;98922.72;4319429;33;20107;-87
2023/01/10 09:09:40;;;;;;;1.75;0.55;;;;;;;7.04;59.57;98924.84;4319733;33;20158;-88
2023/01/10 09:12:53;;;;;;;0.13;0.10;;;;;;;6.99;59.57;98945.69;4319438;33;20179;-88
2023/01/10 09:14:50;;;;;;;1.45;0.35;;;;;;;7.16;59.57;98946.91;4321574;33;20108;-88
2023/01/10 09:17:16;;;;;;;0.98;0.40;;;;;;;7.01;59.56;98949.06;4319710;33;20162;-88
2023/01/10 09:19:41;;;;;;;2.55;1.20;;;;;;;7.18;59.58;98953.75;4319241;33;20167;-87
2023/01/10 09:22:07;;;;;;;1.77;0.47;;;;;;;7.11;59.57;98961.75;4323302;33;20171;-87
2023/01/10 09:24:32;;;;;;;1.35;0.30;;;;;;;7.01;59.56;98966.34;4331449;33;20155;-87
2023/01/10 09:26:57;;;;;;;0.40;0.10;;;;;;;6.95;59.57;98964.78;4319710;33;20205;-87
2023/01/10 09:29:23;;;;;;;0.47;0.10;;;;;;;6.94;59.56;98972.59;4309823;33;20401;-87
2023/01/10 09:31:48;;;;;;;0.40;0.20;;;;;;;6.98;59.57;98980.22;4319879;33;20131;-87
2023/01/10 09:34:14;;;;;;;0.65;0.10;;;;;;;6.91;59.56;98981.28;4321526;33;20101;-88
2023/01/10 09:36:39;;;;;;;1.12;0.40;;;;;;;6.88;59.56;98983.12;4320363;33;20137;-87
2023/01/10 09:39:04;;;;;;;0.95;0.22;;;;;;;6.96;59.57;98982.00;4321214;33;20125;-88
2023/01/10 09:41:47;;;;;;;0.28;0.17;;;;;;;6.94;59.56;98998.47;4319311;33;20504;-88
2023/01/10 09:44:44;;;;;;;0.95;0.32;;;;;;;6.80;59.55;99016.09;4300599;33;20535;-87
2023/01/10 09:47:28;;;;;;;1.55;0.75;;;;;;;6.73;59.56;99020.63;4325631;33;20457;-88
2023/01/10 09:50:14;;;;;;;0.47;0.20;;;;;;;6.72;59.55;99026.69;4320709;33;20121;-87
2023/01/10 09:52:45;;;;;;;0.95;0.60;;;;;;;6.70;59.55;99031.91;4333029;33;20461;-88
2023/01/10 09:55:22;;;;;;;0.93;0.40;;;;;;;6.77;59.55;99033.41;4321096;33;20153;-88
2023/01/10 09:57:48;;;;;;;2.87;1.30;;;;;;;6.80;59.56;99037.66;4321932;33;20126;-88
2023/01/10 10:00:19;;;;;;;1.45;0.40;;;;;;;6.93;59.56;99040.75;4308648;33;20127;-89
2023/01/10 10:02:44;;;;;;;2.53;0.93;;;;;;;6.66;59.55;99039.78;4312882;33;20139;-88
2023/01/10 10:05:19;;;;;;;3.40;1.42;;;;;;;6.72;59.55;99044.78;4315738;33;20116;-88
2023/01/10 10:07:45;;;;;;;1.20;0.40;;;;;;;6.70;59.55;99052.59;4319921;33;20226;-88
2023/01/10 10:10:15;;;;;;;1.27;0.30;;;;;;;6.63;59.54;99045.06;4320928;33;20104;-87
2023/01/10 10:12:46;;;;;;;1.83;0.50;;;;;;;6.63;59.54;99045.06;4320885;33;20466;-88
2023/01/10 10:15:17;;;;;;;1.02;0.55;;;;;;;6.61;59.55;99051.97;4334892;33;20111;-87
2023/01/10 10:17:48;;;;;;;0.90;0.40;;;;;;;6.46;59.54;99054.09;4333271;33;20469;-88
2023/01/10 10:20:13;;;;;;;1.75;0.85;;;;;;;6.51;59.54;99050.53;4332763;33;20103;-87
2023/01/10 10:22:48;;;;;;;6.40;2.20;;;;;;;6.62;59.54;99048.50;4332914;33;20401;-88
2023/01/10 10:25:43;;;;;;;8.30;4.00;;;;;;;6.60;59.55;99053.72;4332682;33;20146;-87
2023/01/10 10:28:30;;;;;;;1.77;0.62;;;;;;;6.63;59.54;99048.47;4329267;33;20099;-88
2023/01/10 10:31:02;;;;;;;0.93;0.50;;;;;;;6.41;59.53;99050.78;4324911;33;20087;-88
2023/01/10 10:33:37;;;;;;;2.53;0.50;;;;;;;6.46;59.54;99059.28;4332700;33;20463;-88
2023/01/10 10:36:08;;;;;;;2.62;0.68;;;;;;;6.54;59.54;99071.97;4318032;33;20531;-88
2023/01/10 10:38:36;;;;;;;5.75;1.77;;;;;;;6.74;59.56;99058.53;4307813;33;20135;-88
2023/01/10 10:41:01;;;;;;;2.25;0.88;;;;;;;6.57;59.54;99076.22;4318063;33;20095;-87
2023/01/10 10:43:34;;;;;;;0.62;0.30;;;;;;;6.73;59.56;99078.37;4317837;33;20479;-87
2023/01/10 10:46:04;;;;;;;1.62;0.65;;;;;;;6.74;59.56;99086.97;4313768;33;20112;-88
2023/01/10 10:48:40;;;;;;;1.17;0.57;;;;;;;6.54;59.54;99084.06;4332829;33;20100;-88
2023/01/10 10:51:24;;;;;;;2.40;0.65;;;;;;;6.65;59.54;99084.66;4307606;33;20121;-88
2023/01/10 10:53:50;;;;;;;2.05;0.40;;;;;;;6.60;59.55;99118.34;4299671;33;20171;-88
2023/01/10 10:56:17;;;;;;;0.57;0.50;;;;;;;6.54;59.54;99104.75;4306408;33;20481;-88
2023/01/10 10:58:43;;;;;;;0.85;0.35;;;;;;;6.69;59.55;99086.25;4320358;33;20442;-88
2023/01/10 11:01:12;;;;;;;0.70;0.45;;;;;;;6.63;59.54;99101.94;4308265;33;20111;-88
2023/01/10 11:03:50;;;;;;;1.05;0.40;;;;;;;6.73;59.56;99103.38;4320604;33;20071;-89
2023/01/10 11:06:16;;;;;;;2.70;1.10;;;;;;;6.73;59.56;99109.41;4308599;33;20797;-88
2023/01/10 11:08:43;;;;;;;0.98;0.70;;;;;;;6.63;59.54;99118.31;4320584;33;20166;-89
2023/01/10 11:11:15;;;;;;;0.77;0.60;;;;;;;6.76;59.55;99127.41;4320440;33;20104;-88
2023/01/10 11:13:47;;;;;;;0.45;0.30;;;;;;;6.62;59.54;99115.72;4318273;33;20120;-88
2023/01/10 11:16:30;;;;;;;3.35;0.55;;;;;;;6.64;59.54;99139.84;4320724;33;20130;-88
2023/01/10 11:19:10;;;;;;;0.40;0.20;;;;;;;6.65;59.54;99128.59;4318461;33;20080;-88
2023/01/10 11:21:37;;;;;;;1.52;0.40;;;;;;;6.40;59.54;99131.81;4325373;33;20457;-88
2023/01/10 11:24:03;;;;;;;0.80;0.40;;;;;;;6.66;59.55;99133.75;4306117;33;20135;-88
2023/01/10 11:26:39;;;;;;;0.65;0.25;;;;;;;6.80;59.55;99132.50;4320391;33;20108;-88
2023/01/10 11:29:34;;;;;;;0.50;0.30;;;;;;;6.78;59.55;99148.06;4320195;33;20170;-88
2023/01/10 11:32:06;;;;;;;2.25;0.75;;;;;;;6.98;59.57;99152.72;4322509;33;20108;-88
2023/01/10 11:34:35;;;;;;;1.10;0.70;;;;;;;6.97;59.57;99156.19;4320321;33;20107;-88
2023/01/10 11:37:02;;;;;;;2.25;0.70;;;;;;;6.83;59.56;99159.12;4322403;33;20126;-87
2023/01/10 11:39:28;;;;;;;0.88;0.30;;;;;;;6.86;59.55;99173.72;4311327;33;20096;-89
2023/01/10 11:41:54;;;;;;;1.65;0.70;;;;;;;6.64;59.54;99171.72;4320237;33;20107;-87
2023/01/10 11:44:24;;;;;;;0.68;0.32;;;;;;;6.84;59.55;99166.00;4320029;33;20112;-86
2023/01/10 11:46:51;;;;;;;2.58;0.90;;;;;;;6.88;59.56;99175.41;4319574;33;20179;-87
2023/01/10 11:49:38;;;;;;;1.05;0.60;;;;;;;6.79;59.55;99185.97;4319026;33;20099;-87
2023/01/10 11:52:06;;;;;;;1.70;0.52;;;;;;;6.78;59.55;99186.88;4312423;33;20512;-87
2023/01/10 11:54:31;;;;;;;0.70;0.50;;;;;;;6.87;59.56;99178.03;4327366;33;20138;-86
2023/01/10 11:56:58;;;;;;;1.70;0.75;;;;;;;6.69;59.54;99184.53;4317798;33;20123;-87